CDT,Max TemperatureF,Mean TemperatureF,Min TemperatureF,Max Dew PointF,MeanDew PointF,Min DewpointF,Max Humidity, Mean Humidity, Min Humidity, Max Sea Level PressureIn, Mean Sea Level PressureIn, Min Sea Level PressureIn, Max VisibilityMiles, Mean VisibilityMiles, Min VisibilityMiles, Max Wind SpeedMPH, Mean Wind SpeedMPH, Max Gust SpeedMPH,PrecipitationIn, CloudCover, Events, WindDirDegrees
2013-6-1,74,68,63,67,62,57,91,81,66,29.78,29.72,29.66,10,10,7,21,13,28,0.01,6,Rain-Thunderstorm,213
2013-6-2,63,59,53,59,52,44,90,75,63,30.05,29.94,29.78,10,10,10,20,11,21,0.00,7,,335
2013-6-3,66,56,47,50,47,44,95,68,46,30.13,30.08,30.04,10,9,3,8,3,,0.00,2,,158
2013-6-4,73,62,50,51,48,46,88,61,39,30.16,30.10,30.05,10,10,10,15,5,17,0.00,1,,114
2013-6-5,75,66,56,58,52,48,80,66,49,30.08,29.99,29.89,10,10,10,18,8,,0.00,5,Rain,75
2013-6-6,71,63,55,57,53,48,88,75,58,29.94,29.89,29.86,10,10,5,16,9,18,0.09,6,Rain,54
2013-6-7,72,64,55,54,49,45,79,61,42,29.94,29.92,29.89,10,10,10,15,8,17,0.00,4,,35
2013-6-8,75,62,50,51,47,36,85,53,31,29.99,29.96,29.93,10,10,10,12,3,,0.00,1,,118
2013-6-9,82,70,58,64,56,47,88,64,37,29.98,29.88,29.80,10,10,4,22,11,28,0.11,3,Rain-Thunderstorm,150
2013-6-10,78,68,58,63,61,57,97,76,55,29.89,29.81,29.76,10,8,0,14,5,23,0.00,3,Fog,274
2013-6-11,87,74,61,68,63,58,91,67,40,29.93,29.87,29.81,10,9,4,12,6,,0.00,1,,235
2013-6-12,92,80,69,73,69,66,90,74,46,29.90,29.75,29.58,10,10,5,22,8,30,0.02,2,Rain-Thunderstorm,171
2013-6-13,80,72,63,66,58,52,93,64,39,30.03,29.92,29.66,10,10,5,17,10,23,0.12,3,Rain,14
2013-6-14,78,66,54,59,55,51,88,64,41,30.14,30.07,29.99,10,10,10,10,6,,0.00,0,,81
2013-6-15,82,72,63,68,63,56,85,74,59,30.05,29.97,29.88,10,10,7,30,7,38,0.03,4,Rain-Thunderstorm,206
2013-6-16,83,74,65,67,64,62,88,72,49,29.96,29.93,29.90,10,10,10,15,9,21,0.02,3,,248
2013-6-17,88,76,63,65,60,52,93,58,31,29.97,29.92,29.88,10,10,2,14,7,59,0.21,1,Rain,252
2013-6-18,76,68,59,61,57,49,86,69,52,30.07,29.99,29.89,10,10,2,20,11,25,0.27,2,Rain,59
2013-6-19,81,68,54,59,54,48,81,60,40,30.13,30.09,30.05,10,10,10,10,7,17,0.00,1,,80
2013-6-20,89,75,61,66,58,53,80,55,33,30.14,30.10,30.05,10,10,10,10,6,17,0.00,1,,157
2013-6-21,85,76,68,68,65,58,92,74,54,30.16,30.06,29.98,10,10,1,18,10,39,0.63,2,Rain-Thunderstorm,170
2013-6-22,80,74,67,73,68,63,88,81,74,30.09,30.02,29.96,10,10,7,20,10,24,0.00,2,Rain-Thunderstorm,158
2013-6-23,87,76,66,71,67,63,90,79,58,30.05,30.00,29.92,10,10,10,17,7,23,0.00,0,Rain-Thunderstorm,182
2013-6-24,86,76,66,73,66,63,94,84,62,30.11,30.00,29.90,10,9,2,29,8,53,0.50,4,Rain-Thunderstorm,209
2013-6-25,85,76,68,73,70,65,93,81,67,29.94,29.88,29.81,10,9,5,16,8,22,0.00,1,Thunderstorm,200
2013-6-26,84,76,68,72,69,65,90,79,62,29.83,29.77,29.73,10,10,7,17,9,24,0.00,3,Rain-Thunderstorm,238
2013-6-27,88,79,70,72,68,59,93,70,47,29.83,29.79,29.74,10,9,3,26,7,32,0.00,1,,289
2013-6-28,82,73,64,64,61,58,83,65,44,29.78,29.70,29.65,10,10,10,20,11,30,0.01,3,Thunderstorm,304
2013-6-29,70,66,61,65,62,57,94,88,75,29.79,29.68,29.62,10,9,3,13,8,17,0.56,6,Rain-Thunderstorm,345
2013-6-30,78,69,60,62,56,48,90,68,43,30.00,29.89,29.79,10,10,10,21,10,25,0.00,4,,25